Time;durP1;ratioP1;P1;durP2;ratioP2;P2;SDS_P1;SDS_P2;PMS_P1;PMS_P2;Temp;Humidity;BMP_temperature;BMP_pressure;BME280_temperature;BME280_humidity;BME280_pressure;Samples;Min_cycle;Max_cycle;Signal;HPM_P1;HPM_P2
2022/05/25 00:00:56;;;;;;;4.13;2.70;;;;;;;;;;5089144;28;20036;-70
2022/05/25 00:03:22;;;;;;;2.63;2.47;;;;;;;;;;5089296;28;20526;-70
2022/05/25 00:05:48;;;;;;;2.70;2.60;;;;;;;;;;5089334;28;20086;-70
2022/05/25 00:08:14;;;;;;;3.78;3.47;;;;;;;;;;5089225;28;20036;-69
2022/05/25 00:10:40;;;;;;;2.38;2.17;;;;;;;;;;5089208;28;20058;-70
2022/05/25 00:13:06;;;;;;;2.70;2.50;;;;;;;;;;5088600;28;20032;-69
2022/05/25 00:15:32;;;;;;;9.82;4.53;;;;;;;;;;5089320;28;20036;-69
2022/05/25 00:17:58;;;;;;;4.10;3.03;;;;;;;;;;5089140;28;20526;-69
2022/05/25 00:20:24;;;;;;;2.33;2.22;;;;;;;;;;5088938;28;20039;-70
2022/05/25 00:22:51;;;;;;;3.53;2.65;;;;;;;;;;5089190;28;20032;-69
2022/05/25 00:25:20;;;;;;;3.83;2.60;;;;;;;;;;5088270;28;20044;-70
2022/05/25 00:27:47;;;;;;;6.80;4.15;;;;;;;;;;5089102;28;20027;-69
2022/05/25 00:30:13;;;;;;;10.75;4.97;;;;;;;;;;5088694;28;20040;-69
2022/05/25 00:32:40;;;;;;;7.53;4.00;;;;;;;;;;5089020;28;20118;-69
2022/05/25 00:35:06;;;;;;;7.63;4.28;;;;;;;;;;5088423;28;20038;-68
2022/05/25 00:37:31;;;;;;;4.90;3.00;;;;;;;;;;5088700;28;20058;-69
2022/05/25 00:39:58;;;;;;;9.25;4.80;;;;;;;;;;5088803;28;20499;-68
2022/05/25 00:42:24;;;;;;;6.57;4.13;;;;;;;;;;5088122;28;20063;-70
2022/05/25 00:44:49;;;;;;;12.00;5.63;;;;;;;;;;5070319;28;20086;-71
2022/05/25 00:47:16;;;;;;;14.55;5.40;;;;;;;;;;5088494;28;20028;-70
2022/05/25 00:49:42;;;;;;;13.90;5.50;;;;;;;;;;5070401;28;20036;-70
2022/05/25 00:52:09;;;;;;;5.80;4.15;;;;;;;;;;5088163;28;20461;-68
2022/05/25 00:54:37;;;;;;;4.40;3.35;;;;;;;;;;5088625;28;20040;-69
2022/05/25 00:57:07;;;;;;;3.40;3.10;;;;;;;;;;5070135;28;20078;-70
2022/05/25 00:59:34;;;;;;;3.95;3.55;;;;;;;;;;5088650;28;20046;-70
2022/05/25 01:02:00;;;;;;;5.10;3.75;;;;;;;;;;5088237;28;20089;-69
2022/05/25 01:04:26;;;;;;;7.07;4.43;;;;;;;;;;5088252;28;20036;-69
2022/05/25 01:06:52;;;;;;;6.78;3.95;;;;;;;;;;5088233;28;20115;-70
2022/05/25 01:09:36;;;;;;;13.48;5.53;;;;;;;;;;5088315;28;20028;-69
2022/05/25 01:12:22;;;;;;;5.13;4.13;;;;;;;;;;5088209;28;20100;-69
2022/05/25 01:14:54;;;;;;;3.67;3.38;;;;;;;;;;5087825;28;20515;-68
2022/05/25 01:17:41;;;;;;;4.20;3.80;;;;;;;;;;5069930;28;20107;-69
2022/05/25 01:20:18;;;;;;;8.13;5.15;;;;;;;;;;5070185;28;20476;-69
2022/05/25 01:22:59;;;;;;;5.63;5.00;;;;;;;;;;5070203;28;20570;-68
2022/05/25 01:25:31;;;;;;;7.63;4.60;;;;;;;;;;5087773;28;20471;-69
2022/05/25 01:27:57;;;;;;;5.65;3.92;;;;;;;;;;5087834;28;20024;-70
2022/05/25 01:30:34;;;;;;;4.43;3.60;;;;;;;;;;5087745;28;20032;-71
2022/05/25 01:33:03;;;;;;;6.75;3.25;;;;;;;;;;5070047;28;20111;-69
2022/05/25 01:35:38;;;;;;;4.72;4.00;;;;;;;;;;5052973;28;20032;-69
2022/05/25 01:38:08;;;;;;;3.45;3.10;;;;;;;;;;5086953;28;20423;-70
2022/05/25 01:40:39;;;;;;;4.53;3.17;;;;;;;;;;5070142;28;20036;-68
2022/05/25 01:43:06;;;;;;;3.80;3.45;;;;;;;;;;5086647;28;20074;-69
2022/05/25 01:45:33;;;;;;;3.97;3.33;;;;;;;;;;5069909;28;20532;-69
2022/05/25 01:48:00;;;;;;;3.92;3.03;;;;;;;;;;5087842;28;20032;-68
2022/05/25 01:50:33;;;;;;;3.35;3.00;;;;;;;;;;5069549;28;20488;-70
2022/05/25 01:52:59;;;;;;;3.58;3.38;;;;;;;;;;5069536;28;20028;-69
2022/05/25 01:55:26;;;;;;;3.70;3.40;;;;;;;;;;5088850;28;20044;-70
2022/05/25 01:57:53;;;;;;;3.65;3.35;;;;;;;;;;5073951;28;20036;-71
2022/05/25 02:00:30;;;;;;;3.53;3.17;;;;;;;;;;5073441;28;20036;-69
2022/05/25 02:05:41;;;;;;;3.47;3.28;;;;;;;;;;5091308;28;20042;-69
2022/05/25 02:08:14;;;;;;;4.10;3.70;;;;;;;;;;5057017;28;20040;-69
2022/05/25 02:10:58;;;;;;;3.92;3.58;;;;;;;;;;5073499;28;20028;-70
2022/05/25 02:13:26;;;;;;;3.90;3.50;;;;;;;;;;5091276;28;20126;-70
2022/05/25 02:16:04;;;;;;;3.70;3.40;;;;;;;;;;5091479;28;20050;-70
2022/05/25 02:18:30;;;;;;;4.95;3.20;;;;;;;;;;5091198;28;20467;-69
2022/05/25 02:21:01;;;;;;;3.55;3.25;;;;;;;;;;5091462;28;20478;-70
2022/05/25 02:23:37;;;;;;;3.38;2.90;;;;;;;;;;5091354;28;20131;-70
2022/05/25 02:26:06;;;;;;;6.70;2.97;;;;;;;;;;5073214;28;20032;-70
2022/05/25 02:28:34;;;;;;;4.22;2.60;;;;;;;;;;5072785;28;20108;-70
2022/05/25 02:31:00;;;;;;;5.93;2.60;;;;;;;;;;5073139;28;20024;-69
2022/05/25 02:33:27;;;;;;;6.95;2.92;;;;;;;;;;5089481;28;20059;-70
2022/05/25 02:35:53;;;;;;;3.45;2.90;;;;;;;;;;5073129;28;20415;-69
2022/05/25 02:38:19;;;;;;;4.05;2.70;;;;;;;;;;5072737;28;20036;-70
2022/05/25 02:40:45;;;;;;;3.75;2.97;;;;;;;;;;5090870;28;20062;-71
2022/05/25 02:43:11;;;;;;;3.92;2.83;;;;;;;;;;5090253;28;20407;-72
2022/05/25 02:45:37;;;;;;;8.10;3.13;;;;;;;;;;5090936;28;20035;-71
2022/05/25 02:48:02;;;;;;;3.30;3.00;;;;;;;;;;5072902;28;20407;-71
2022/05/25 02:50:28;;;;;;;3.30;3.05;;;;;;;;;;5090494;28;20088;-71
2022/05/25 02:52:56;;;;;;;3.00;2.80;;;;;;;;;;5090798;28;20406;-71
2022/05/25 02:55:22;;;;;;;5.03;2.60;;;;;;;;;;5090388;28;20121;-71
2022/05/25 02:57:48;;;;;;;3.92;3.53;;;;;;;;;;5090645;28;20069;-71
2022/05/25 03:00:14;;;;;;;4.55;3.40;;;;;;;;;;5090546;28;20391;-71
2022/05/25 03:02:40;;;;;;;3.00;2.78;;;;;;;;;;5090427;28;20096;-72
2022/05/25 03:05:06;;;;;;;3.42;3.22;;;;;;;;;;5090525;28;20136;-72
2022/05/25 03:07:32;;;;;;;3.50;3.20;;;;;;;;;;5089508;28;20153;-71
2022/05/25 03:09:58;;;;;;;4.80;3.70;;;;;;;;;;5090484;28;20123;-71
2022/05/25 03:12:23;;;;;;;7.85;3.40;;;;;;;;;;5089993;28;20032;-71
2022/05/25 03:14:49;;;;;;;5.82;4.38;;;;;;;;;;5090080;28;20533;-71
2022/05/25 03:17:15;;;;;;;6.97;4.80;;;;;;;;;;5089978;28;20515;-73
2022/05/25 03:19:51;;;;;;;4.63;4.22;;;;;;;;;;5089943;28;20466;-70
2022/05/25 03:22:17;;;;;;;6.43;5.82;;;;;;;;;;5090201;28;20119;-71
2022/05/25 03:24:43;;;;;;;7.63;4.93;;;;;;;;;;5090443;28;20568;-71
2022/05/25 03:27:08;;;;;;;6.93;5.93;;;;;;;;;;5089978;28;20042;-70
2022/05/25 03:29:34;;;;;;;6.90;6.40;;;;;;;;;;5090214;28;20306;-72
2022/05/25 03:32:00;;;;;;;8.45;6.55;;;;;;;;;;5089881;28;20504;-70
2022/05/25 03:34:26;;;;;;;6.53;5.93;;;;;;;;;;5089738;28;20042;-71
2022/05/25 03:36:55;;;;;;;6.78;6.15;;;;;;;;;;5055361;28;20521;-70
2022/05/25 03:39:22;;;;;;;11.80;5.75;;;;;;;;;;5069238;28;20060;-72
2022/05/25 03:41:52;;;;;;;6.30;5.80;;;;;;;;;;5069470;28;20028;-71
2022/05/25 03:44:18;;;;;;;6.57;5.78;;;;;;;;;;5068931;28;20113;-73
2022/05/25 03:46:44;;;;;;;5.30;4.80;;;;;;;;;;5069486;28;20032;-71
2022/05/25 03:49:09;;;;;;;7.72;6.78;;;;;;;;;;5069498;28;20093;-71
2022/05/25 03:51:35;;;;;;;6.30;5.70;;;;;;;;;;5069128;28;20033;-72
2022/05/25 03:54:01;;;;;;;7.53;4.65;;;;;;;;;;5069295;28;20063;-71
2022/05/25 03:56:27;;;;;;;5.63;5.07;;;;;;;;;;5068889;28;20499;-72
2022/05/25 03:58:52;;;;;;;6.28;5.03;;;;;;;;;;5069304;28;20036;-71
2022/05/25 04:01:19;;;;;;;9.90;5.30;;;;;;;;;;5068918;28;20123;-71
2022/05/25 04:03:44;;;;;;;6.28;5.25;;;;;;;;;;5051320;28;20383;-73
2022/05/25 04:06:10;;;;;;;4.80;4.47;;;;;;;;;;5079957;28;20020;-71
2022/05/25 04:08:36;;;;;;;6.15;5.60;;;;;;;;;;5087934;28;20040;-72
2022/05/25 04:11:02;;;;;;;5.75;5.25;;;;;;;;;;5089039;28;20056;-72
2022/05/25 04:13:28;;;;;;;7.88;5.25;;;;;;;;;;5088598;28;20059;-72
2022/05/25 04:15:54;;;;;;;5.90;5.40;;;;;;;;;;5088574;28;20412;-73
2022/05/25 04:18:19;;;;;;;6.70;5.38;;;;;;;;;;5087898;28;20035;-71
2022/05/25 04:20:45;;;;;;;5.70;5.30;;;;;;;;;;5090149;28;20035;-72
2022/05/25 04:23:11;;;;;;;6.30;5.80;;;;;;;;;;5089515;28;20412;-71
2022/05/25 04:25:38;;;;;;;5.78;5.35;;;;;;;;;;5089124;28;20032;-72
2022/05/25 04:28:05;;;;;;;6.90;5.93;;;;;;;;;;5089443;28;20040;-71
2022/05/25 04:30:30;;;;;;;4.55;4.20;;;;;;;;;;5070932;28;20118;-73
2022/05/25 04:32:56;;;;;;;6.93;5.20;;;;;;;;;;5070807;28;20115;-73
2022/05/25 04:35:22;;;;;;;5.35;4.90;;;;;;;;;;5089070;28;20472;-72
2022/05/25 04:37:55;;;;;;;3.92;3.55;;;;;;;;;;5089052;28;20101;-72
2022/05/25 04:40:41;;;;;;;5.38;4.88;;;;;;;;;;5088530;28;20039;-72
2022/05/25 04:43:08;;;;;;;5.35;4.85;;;;;;;;;;5087975;28;20044;-72
2022/05/25 04:45:34;;;;;;;10.30;5.93;;;;;;;;;;5088174;28;20044;-72
2022/05/25 04:48:00;;;;;;;6.25;5.75;;;;;;;;;;5088449;28;20031;-72
2022/05/25 04:50:29;;;;;;;6.03;5.53;;;;;;;;;;5088590;28;20044;-71
2022/05/25 04:52:59;;;;;;;5.95;5.15;;;;;;;;;;5088501;28;20459;-72
2022/05/25 04:58:24;;;;;;;6.85;4.90;;;;;;;;;;5088095;28;20370;-70
2022/05/25 05:00:50;;;;;;;6.65;4.05;;;;;;;;;;5088448;28;20570;-72
2022/05/25 05:03:16;;;;;;;4.07;3.60;;;;;;;;;;5088668;28;20123;-70
2022/05/25 05:05:42;;;;;;;4.22;3.92;;;;;;;;;;5086700;28;20085;-72
2022/05/25 05:08:08;;;;;;;9.30;3.65;;;;;;;;;;5088534;28;20058;-71
2022/05/25 05:10:34;;;;;;;5.97;3.80;;;;;;;;;;5088147;28;20537;-70
2022/05/25 05:13:04;;;;;;;8.65;2.90;;;;;;;;;;5081034;28;20062;-71
2022/05/25 05:15:33;;;;;;;2.53;2.37;;;;;;;;;;5084021;28;20042;-71
2022/05/25 05:17:59;;;;;;;3.70;2.78;;;;;;;;;;5069355;28;20608;-71
2022/05/25 05:20:45;;;;;;;4.97;2.65;;;;;;;;;;5078273;28;20028;-72
2022/05/25 05:23:11;;;;;;;3.45;2.70;;;;;;;;;;5086835;28;20059;-73
2022/05/25 05:25:37;;;;;;;5.53;2.60;;;;;;;;;;5096493;28;20027;-73
2022/05/25 05:28:03;;;;;;;3.67;2.88;;;;;;;;;;5093849;28;20187;-73
2022/05/25 05:30:30;;;;;;;8.60;3.00;;;;;;;;;;5085781;28;20415;-72
2022/05/25 05:32:55;;;;;;;8.05;2.97;;;;;;;;;;5095593;28;20067;-73
2022/05/25 05:35:21;;;;;;;3.75;2.75;;;;;;;;;;5094241;28;20079;-73
2022/05/25 05:37:48;;;;;;;2.67;2.58;;;;;;;;;;5085358;28;20051;-75
2022/05/25 05:40:14;;;;;;;2.35;2.25;;;;;;;;;;5064459;28;20037;-73
2022/05/25 05:42:41;;;;;;;5.53;2.95;;;;;;;;;;5094009;28;20138;-73
2022/05/25 05:45:11;;;;;;;2.75;2.50;;;;;;;;;;5099335;28;20533;-74
2022/05/25 05:47:40;;;;;;;4.05;2.70;;;;;;;;;;5094245;28;20067;-74
2022/05/25 05:50:06;;;;;;;4.40;2.85;;;;;;;;;;5097013;28;20028;-74
2022/05/25 05:52:33;;;;;;;5.40;2.88;;;;;;;;;;5097923;28;20032;-73
2022/05/25 05:54:58;;;;;;;2.78;2.55;;;;;;;;;;5082255;28;20043;-73
2022/05/25 05:57:25;;;;;;;3.05;2.75;;;;;;;;;;5096936;28;20522;-74
2022/05/25 05:59:51;;;;;;;5.30;3.17;;;;;;;;;;5094517;28;20650;-73
2022/05/25 06:02:16;;;;;;;3.45;2.40;;;;;;;;;;5095226;28;20206;-74
2022/05/25 06:04:42;;;;;;;3.92;2.40;;;;;;;;;;5096581;28;20019;-74
2022/05/25 06:07:08;;;;;;;2.20;2.10;;;;;;;;;;5095910;28;20442;-73
2022/05/25 06:09:34;;;;;;;2.15;2.00;;;;;;;;;;5096927;28;20032;-74
2022/05/25 06:11:59;;;;;;;3.53;2.00;;;;;;;;;;5092395;28;20081;-73
2022/05/25 06:14:25;;;;;;;2.35;2.17;;;;;;;;;;5097458;28;20043;-74
2022/05/25 06:19:49;;;;;;;2.55;2.20;;;;;;;;;;5065382;28;20516;-75
2022/05/25 06:22:15;;;;;;;3.33;2.85;;;;;;;;;;5098281;28;20035;-75
2022/05/25 06:24:42;;;;;;;5.55;2.95;;;;;;;;;;5089125;28;20042;-74
2022/05/25 06:27:08;;;;;;;3.30;2.92;;;;;;;;;;5088105;28;20032;-75
2022/05/25 06:29:35;;;;;;;2.78;2.58;;;;;;;;;;5095866;28;20107;-74
2022/05/25 06:32:01;;;;;;;3.00;2.80;;;;;;;;;;5091060;28;20040;-72
2022/05/25 06:34:27;;;;;;;2.72;2.53;;;;;;;;;;5085764;28;20431;-74
2022/05/25 06:36:52;;;;;;;3.17;2.67;;;;;;;;;;5095884;28;20039;-72
2022/05/25 06:39:18;;;;;;;2.75;2.55;;;;;;;;;;5097240;28;20233;-73
2022/05/25 06:41:44;;;;;;;2.45;2.25;;;;;;;;;;5096344;28;20072;-74
2022/05/25 06:44:10;;;;;;;1.60;1.50;;;;;;;;;;5089683;28;20051;-73
2022/05/25 06:46:36;;;;;;;2.70;2.50;;;;;;;;;;5098100;28;20040;-73
2022/05/25 06:49:02;;;;;;;2.20;2.10;;;;;;;;;;5095269;28;20032;-73
2022/05/25 06:51:29;;;;;;;1.83;1.45;;;;;;;;;;5100918;28;20384;-73
2022/05/25 06:53:54;;;;;;;2.05;1.95;;;;;;;;;;5100514;28;20054;-73
2022/05/25 06:56:22;;;;;;;2.10;2.00;;;;;;;;;;5098490;28;20261;-72
2022/05/25 06:58:48;;;;;;;2.10;2.00;;;;;;;;;;5099661;28;20032;-73
2022/05/25 07:01:13;;;;;;;5.18;2.38;;;;;;;;;;5096115;28;20031;-72
2022/05/25 07:03:39;;;;;;;2.28;2.17;;;;;;;;;;5099354;28;20035;-73
2022/05/25 07:06:06;;;;;;;1.95;1.85;;;;;;;;;;5100291;28;20032;-75
2022/05/25 07:08:32;;;;;;;2.47;2.10;;;;;;;;;;5090341;28;20089;-73
2022/05/25 07:10:57;;;;;;;2.10;1.95;;;;;;;;;;5080599;28;20563;-72
2022/05/25 07:13:24;;;;;;;2.10;1.67;;;;;;;;;;5098903;28;20446;-73
2022/05/25 07:15:54;;;;;;;2.60;2.40;;;;;;;;;;5094888;28;20123;-75
2022/05/25 07:18:20;;;;;;;2.67;2.47;;;;;;;;;;5097591;28;20535;-73
2022/05/25 07:20:45;;;;;;;2.20;2.10;;;;;;;;;;5099704;28;20059;-72
2022/05/25 07:23:24;;;;;;;2.95;2.33;;;;;;;;;;5095237;28;20043;-73
2022/05/25 07:25:49;;;;;;;4.40;2.55;;;;;;;;;;5098827;28;20063;-72
2022/05/25 07:28:15;;;;;;;3.10;2.20;;;;;;;;;;5089948;28;20071;-72
2022/05/25 07:30:41;;;;;;;2.50;2.30;;;;;;;;;;5095968;28;20059;-72
2022/05/25 07:33:07;;;;;;;1.92;1.58;;;;;;;;;;5086364;28;20040;-74
2022/05/25 07:35:33;;;;;;;2.10;2.00;;;;;;;;;;5099160;28;20572;-73
2022/05/25 07:37:59;;;;;;;2.30;2.20;;;;;;;;;;5095512;28;20584;-71
2022/05/25 07:40:29;;;;;;;3.38;2.10;;;;;;;;;;5099084;28;20069;-74
2022/05/25 07:42:57;;;;;;;2.50;1.90;;;;;;;;;;5095798;28;20031;-74
2022/05/25 07:45:23;;;;;;;3.42;1.75;;;;;;;;;;5079357;28;20491;-72
2022/05/25 07:47:51;;;;;;;3.28;1.95;;;;;;;;;;5099044;28;20080;-74
2022/05/25 07:50:17;;;;;;;9.90;2.10;;;;;;;;;;5083089;28;20070;-73
2022/05/25 07:52:43;;;;;;;3.22;2.08;;;;;;;;;;5099014;28;20047;-72
2022/05/25 07:55:09;;;;;;;2.42;1.90;;;;;;;;;;5086946;28;20052;-73
2022/05/25 07:57:35;;;;;;;4.25;2.05;;;;;;;;;;5089065;28;20023;-72
2022/05/25 08:00:01;;;;;;;2.17;2.08;;;;;;;;;;5093282;28;20047;-71
2022/05/25 08:08:02;;;;;;;2.10;1.95;;;;;;;;;;5079924;28;20165;-73
2022/05/25 08:10:28;;;;;;;2.45;2.25;;;;;;;;;;5098935;28;20028;-71
2022/05/25 08:12:55;;;;;;;2.33;1.98;;;;;;;;;;5093800;28;20042;-72
2022/05/25 08:15:21;;;;;;;2.05;1.95;;;;;;;;;;5077457;28;20559;-72
2022/05/25 08:17:47;;;;;;;4.63;1.90;;;;;;;;;;5097113;28;20511;-73
2022/05/25 08:20:13;;;;;;;2.42;2.13;;;;;;;;;;5089913;28;20070;-72
2022/05/25 08:22:39;;;;;;;4.57;2.60;;;;;;;;;;5069078;28;20213;-75
2022/05/25 08:25:05;;;;;;;8.20;2.85;;;;;;;;;;5082062;28;20064;-76
2022/05/25 08:27:31;;;;;;;5.45;3.15;;;;;;;;;;5078706;28;20040;-74
2022/05/25 08:29:57;;;;;;;5.18;2.92;;;;;;;;;;5080191;28;20032;-74
2022/05/25 08:32:23;;;;;;;6.00;2.92;;;;;;;;;;5069382;28;20447;-73
2022/05/25 08:34:49;;;;;;;2.13;2.03;;;;;;;;;;5088667;28;20055;-75
2022/05/25 08:37:15;;;;;;;5.10;2.75;;;;;;;;;;5073059;28;20423;-75
2022/05/25 08:39:41;;;;;;;3.50;2.67;;;;;;;;;;5068637;28;20025;-76
2022/05/25 08:42:09;;;;;;;4.03;2.63;;;;;;;;;;5067327;28;20036;-75
2022/05/25 08:44:35;;;;;;;3.13;2.90;;;;;;;;;;5057080;28;20052;-74
2022/05/25 08:47:02;;;;;;;3.35;3.03;;;;;;;;;;5089433;28;20070;-75
2022/05/25 08:49:28;;;;;;;2.97;2.72;;;;;;;;;;5070503;28;20484;-75
2022/05/25 08:51:55;;;;;;;4.05;3.20;;;;;;;;;;5089025;28;20028;-76
2022/05/25 08:54:21;;;;;;;5.50;2.72;;;;;;;;;;5071246;28;20048;-76
2022/05/25 08:56:47;;;;;;;1.80;1.70;;;;;;;;;;5089120;28;20035;-76
2022/05/25 08:59:17;;;;;;;2.38;2.20;;;;;;;;;;5089462;28;20173;-75
2022/05/25 09:01:47;;;;;;;9.40;3.05;;;;;;;;;;5070978;28;20028;-76
2022/05/25 09:04:22;;;;;;;2.83;2.53;;;;;;;;;;5070782;28;20038;-77
2022/05/25 09:07:17;;;;;;;2.67;2.42;;;;;;;;;;5070974;28;20377;-76
2022/05/25 09:09:44;;;;;;;6.03;2.17;;;;;;;;;;5016557;28;20042;-75
2022/05/25 09:12:25;;;;;;;6.72;2.45;;;;;;;;;;5085237;28;20364;-74
2022/05/25 09:14:56;;;;;;;3.22;2.50;;;;;;;;;;5088572;28;20538;-74
2022/05/25 09:17:26;;;;;;;3.28;2.70;;;;;;;;;;5088280;28;20032;-74
2022/05/25 09:19:55;;;;;;;4.20;2.97;;;;;;;;;;5087758;28;20043;-75
2022/05/25 09:22:22;;;;;;;5.78;3.47;;;;;;;;;;5088264;28;20057;-74
2022/05/25 09:24:48;;;;;;;3.47;2.60;;;;;;;;;;5088038;28;20039;-73
2022/05/25 09:27:15;;;;;;;4.65;3.20;;;;;;;;;;5088418;28;20126;-72
2022/05/25 09:29:41;;;;;;;3.55;2.53;;;;;;;;;;5069892;28;20024;-71
2022/05/25 09:32:20;;;;;;;3.90;3.00;;;;;;;;;;5088402;28;20036;-73
2022/05/25 09:35:06;;;;;;;4.00;3.42;;;;;;;;;;5070161;28;20036;-73
2022/05/25 09:37:50;;;;;;;5.35;3.58;;;;;;;;;;5067937;28;20400;-73
2022/05/25 09:40:20;;;;;;;5.68;3.28;;;;;;;;;;5067834;28;20044;-73
2022/05/25 09:42:49;;;;;;;4.97;2.92;;;;;;;;;;5067609;28;20131;-74
2022/05/25 09:45:15;;;;;;;3.58;2.90;;;;;;;;;;5087249;28;20055;-73
2022/05/25 09:47:42;;;;;;;3.63;2.90;;;;;;;;;;5087901;28;20036;-73
2022/05/25 09:50:08;;;;;;;3.53;3.10;;;;;;;;;;5088252;28;20169;-73
2022/05/25 09:52:37;;;;;;;3.45;2.60;;;;;;;;;;5069833;28;20032;-72
2022/05/25 09:55:10;;;;;;;3.20;2.90;;;;;;;;;;5087497;28;20048;-71
2022/05/25 09:57:37;;;;;;;4.90;3.00;;;;;;;;;;5087724;28;20040;-73
2022/05/25 10:00:06;;;;;;;3.15;2.88;;;;;;;;;;5088110;28;20049;-73
2022/05/25 10:02:42;;;;;;;3.00;2.75;;;;;;;;;;5088166;28;20040;-72
2022/05/25 10:05:24;;;;;;;3.00;2.78;;;;;;;;;;5070375;28;20070;-71
2022/05/25 10:07:50;;;;;;;3.22;3.00;;;;;;;;;;5087649;28;20085;-72
2022/05/25 10:10:16;;;;;;;6.47;3.00;;;;;;;;;;5087873;28;20105;-71
2022/05/25 10:12:43;;;;;;;7.13;3.20;;;;;;;;;;5052925;28;20512;-72
2022/05/25 10:15:10;;;;;;;8.38;3.40;;;;;;;;;;5088038;28;20491;-71
2022/05/25 10:17:38;;;;;;;3.17;2.70;;;;;;;;;;5091016;28;20040;-73
2022/05/25 10:20:06;;;;;;;3.75;2.95;;;;;;;;;;5091800;28;20109;-73
2022/05/25 10:22:32;;;;;;;3.25;2.92;;;;;;;;;;5073811;28;20040;-72
2022/05/25 10:25:08;;;;;;;2.90;2.70;;;;;;;;;;5091504;28;20403;-73
2022/05/25 10:27:36;;;;;;;3.60;2.97;;;;;;;;;;5091545;28;20036;-73
2022/05/25 10:38:28;;;;;;;3.15;2.08;;;;;;;;;;5091437;28;20036;-72
2022/05/25 10:40:55;;;;;;;3.17;2.97;;;;;;;;;;5091009;28;20496;-74
2022/05/25 10:43:28;;;;;;;7.75;3.03;;;;;;;;;;5072638;28;20122;-73
2022/05/25 10:45:55;;;;;;;3.38;2.55;;;;;;;;;;5091241;28;20063;-74
2022/05/25 10:48:20;;;;;;;5.65;2.60;;;;;;;;;;5091095;28;20063;-72
2022/05/25 10:50:49;;;;;;;3.15;2.90;;;;;;;;;;5090720;28;20055;-74
2022/05/25 10:53:22;;;;;;;5.63;2.92;;;;;;;;;;5073082;28;20036;-74
2022/05/25 10:55:47;;;;;;;7.20;3.00;;;;;;;;;;5090418;28;20036;-73
2022/05/25 10:58:32;;;;;;;6.25;2.95;;;;;;;;;;5091185;28;20047;-74
2022/05/25 11:01:04;;;;;;;3.92;2.90;;;;;;;;;;5090501;28;20044;-75
2022/05/25 11:03:48;;;;;;;4.35;3.38;;;;;;;;;;5091109;28;20024;-74
2022/05/25 11:06:17;;;;;;;2.88;2.67;;;;;;;;;;5073669;28;20047;-74
2022/05/25 11:08:47;;;;;;;7.38;2.75;;;;;;;;;;5090747;28;20034;-75
2022/05/25 11:11:16;;;;;;;4.25;3.85;;;;;;;;;;5073401;28;20036;-74
2022/05/25 11:13:54;;;;;;;5.05;2.70;;;;;;;;;;5090783;28;20036;-74
2022/05/25 11:16:38;;;;;;;2.60;2.50;;;;;;;;;;5091224;28;20036;-73
2022/05/25 11:19:07;;;;;;;2.05;1.95;;;;;;;;;;5074267;28;20046;-74
2022/05/25 11:21:33;;;;;;;4.32;2.72;;;;;;;;;;5090940;28;20484;-74
2022/05/25 11:24:02;;;;;;;2.42;2.22;;;;;;;;;;5090809;28;20042;-74
2022/05/25 11:26:44;;;;;;;2.60;2.42;;;;;;;;;;5073002;28;20354;-74
2022/05/25 11:29:29;;;;;;;3.83;2.70;;;;;;;;;;5090868;28;20116;-74
2022/05/25 11:32:04;;;;;;;2.95;2.60;;;;;;;;;;5090936;28;20044;-75
2022/05/25 11:34:49;;;;;;;2.72;2.13;;;;;;;;;;5072309;28;20043;-74
2022/05/25 11:37:34;;;;;;;2.67;2.38;;;;;;;;;;5072909;28;20289;-73
2022/05/25 11:40:03;;;;;;;6.53;2.67;;;;;;;;;;5091153;28;20036;-75
2022/05/25 11:42:32;;;;;;;2.70;2.50;;;;;;;;;;5096259;28;20039;-74
2022/05/25 11:45:07;;;;;;;2.90;2.47;;;;;;;;;;5098369;28;20123;-74
2022/05/25 11:47:36;;;;;;;2.63;2.40;;;;;;;;;;5075862;28;20067;-74
2022/05/25 11:50:11;;;;;;;5.50;2.70;;;;;;;;;;5090419;28;20517;-74
2022/05/25 11:52:44;;;;;;;3.47;2.58;;;;;;;;;;5090421;28;20073;-75
2022/05/25 11:55:12;;;;;;;2.85;2.60;;;;;;;;;;5090318;28;20036;-75
2022/05/25 11:57:57;;;;;;;3.20;3.00;;;;;;;;;;5071780;28;20128;-74
2022/05/25 12:00:41;;;;;;;6.28;2.70;;;;;;;;;;5090131;28;20028;-73
2022/05/25 12:03:07;;;;;;;2.85;2.38;;;;;;;;;;5089994;28;20127;-72
2022/05/25 12:05:41;;;;;;;7.85;7.05;;;;;;;;;;5090102;28;20024;-73
2022/05/25 12:08:10;;;;;;;3.13;2.70;;;;;;;;;;5072116;28;20063;-74
2022/05/25 12:10:37;;;;;;;2.75;2.55;;;;;;;;;;5089786;28;20062;-74
2022/05/25 12:13:16;;;;;;;3.05;2.63;;;;;;;;;;5071858;28;20040;-74
2022/05/25 12:15:52;;;;;;;2.67;2.40;;;;;;;;;;5089747;28;20039;-74
2022/05/25 12:18:25;;;;;;;2.88;2.67;;;;;;;;;;5071937;28;20039;-74
2022/05/25 12:21:17;;;;;;;2.95;2.58;;;;;;;;;;5090018;28;20416;-74
2022/05/25 12:23:45;;;;;;;2.42;2.30;;;;;;;;;;5065103;28;20040;-74
2022/05/25 12:26:22;;;;;;;4.97;2.53;;;;;;;;;;5071944;28;20476;-74
2022/05/25 12:28:48;;;;;;;3.17;2.33;;;;;;;;;;5089561;28;20036;-74
2022/05/25 12:31:16;;;;;;;2.95;2.33;;;;;;;;;;5089977;28;20407;-74
2022/05/25 12:33:42;;;;;;;2.60;2.40;;;;;;;;;;5085510;28;20046;-74
2022/05/25 12:36:10;;;;;;;2.13;2.03;;;;;;;;;;5089120;28;20111;-72
2022/05/25 12:38:36;;;;;;;2.60;2.40;;;;;;;;;;5070936;28;20028;-72
2022/05/25 12:41:21;;;;;;;3.65;2.20;;;;;;;;;;5089152;28;20606;-72
2022/05/25 12:43:47;;;;;;;4.93;2.92;;;;;;;;;;5066997;28;20569;-72
2022/05/25 12:48:58;;;;;;;6.72;2.63;;;;;;;;;;5052797;28;20040;-74
2022/05/25 12:51:31;;;;;;;2.60;2.40;;;;;;;;;;5050960;28;20028;-74
2022/05/25 12:53:58;;;;;;;5.43;2.60;;;;;;;;;;5068545;28;20061;-74
2022/05/25 12:56:24;;;;;;;5.03;2.47;;;;;;;;;;5050936;28;20048;-73
2022/05/25 12:58:52;;;;;;;7.25;2.47;;;;;;;;;;5068468;28;20040;-73
2022/05/25 13:01:26;;;;;;;2.70;2.50;;;;;;;;;;5050620;28;20035;-73
2022/05/25 13:03:55;;;;;;;2.70;2.50;;;;;;;;;;5087797;28;20042;-74
2022/05/25 13:06:24;;;;;;;5.53;2.85;;;;;;;;;;5088963;28;20040;-74
2022/05/25 13:08:50;;;;;;;2.83;2.60;;;;;;;;;;5070884;28;20036;-73
2022/05/25 13:11:28;;;;;;;4.20;2.55;;;;;;;;;;5088866;28;20020;-72
2022/05/25 13:13:54;;;;;;;6.53;2.47;;;;;;;;;;5088241;28;20489;-74
2022/05/25 13:16:39;;;;;;;5.38;2.35;;;;;;;;;;5089012;28;20055;-71
2022/05/25 13:19:14;;;;;;;4.00;2.67;;;;;;;;;;5088491;28;20032;-74
2022/05/25 13:21:53;;;;;;;4.50;2.40;;;;;;;;;;5088961;28;20038;-71
2022/05/25 13:24:21;;;;;;;2.90;2.33;;;;;;;;;;5088650;28;20032;-72
2022/05/25 13:26:54;;;;;;;2.10;2.00;;;;;;;;;;5088765;28;20043;-72
2022/05/25 13:29:22;;;;;;;4.28;2.50;;;;;;;;;;5087547;28;20393;-72
2022/05/25 13:31:53;;;;;;;4.35;2.40;;;;;;;;;;5088347;28;20031;-73
2022/05/25 13:34:19;;;;;;;3.65;2.30;;;;;;;;;;5088335;28;20055;-73
2022/05/25 13:36:50;;;;;;;3.40;2.35;;;;;;;;;;5088342;28;20108;-74
2022/05/25 13:39:17;;;;;;;3.95;2.17;;;;;;;;;;5089063;28;20028;-72
2022/05/25 13:41:55;;;;;;;3.42;2.55;;;;;;;;;;5089168;28;20115;-73
2022/05/25 13:44:41;;;;;;;3.47;3.17;;;;;;;;;;5088478;28;20502;-73
2022/05/25 13:47:06;;;;;;;3.15;2.55;;;;;;;;;;5087776;28;20055;-73
2022/05/25 13:49:38;;;;;;;2.80;2.20;;;;;;;;;;5088144;28;20032;-70
2022/05/25 13:52:08;;;;;;;2.70;2.50;;;;;;;;;;5092296;28;20440;-73
2022/05/25 13:54:35;;;;;;;3.05;2.67;;;;;;;;;;5092401;28;20051;-72
2022/05/25 13:57:01;;;;;;;3.25;2.35;;;;;;;;;;5092334;28;20036;-74
2022/05/25 13:59:36;;;;;;;5.70;2.35;;;;;;;;;;5092256;28;20117;-73
2022/05/25 14:02:25;;;;;;;3.10;2.90;;;;;;;;;;5091504;28;20065;-74
2022/05/25 14:04:52;;;;;;;2.90;2.70;;;;;;;;;;5081253;28;20499;-73
2022/05/25 14:07:52;;;;;;;2.78;2.58;;;;;;;;;;5074262;28;20032;-73
2022/05/25 14:13:10;;;;;;;4.63;2.13;;;;;;;;;;5092090;28;20190;-72
2022/05/25 14:15:37;;;;;;;2.65;2.45;;;;;;;;;;5092023;28;20051;-74
2022/05/25 14:18:04;;;;;;;2.58;2.38;;;;;;;;;;5073929;28;20043;-72
2022/05/25 14:20:30;;;;;;;2.45;2.35;;;;;;;;;;5092440;28;20032;-73
2022/05/25 14:22:55;;;;;;;2.50;2.30;;;;;;;;;;5091844;28;20512;-72
2022/05/25 14:25:25;;;;;;;3.30;2.60;;;;;;;;;;5092375;28;20043;-72
2022/05/25 14:27:51;;;;;;;2.20;2.10;;;;;;;;;;5091659;28;20067;-73
2022/05/25 14:30:26;;;;;;;3.92;2.00;;;;;;;;;;5092632;28;20509;-71
2022/05/25 14:33:00;;;;;;;2.67;2.40;;;;;;;;;;5091235;28;20048;-75
2022/05/25 14:35:27;;;;;;;2.58;2.30;;;;;;;;;;5092471;28;20124;-74
2022/05/25 14:37:52;;;;;;;2.92;2.35;;;;;;;;;;5091747;28;20475;-72
2022/05/25 14:40:19;;;;;;;2.33;2.13;;;;;;;;;;5073450;28;20207;-74
2022/05/25 14:42:55;;;;;;;2.22;2.03;;;;;;;;;;5091990;28;20059;-74
2022/05/25 14:45:21;;;;;;;4.25;2.13;;;;;;;;;;5091656;28;20059;-74
2022/05/25 14:47:50;;;;;;;1.90;1.80;;;;;;;;;;5091771;28;20040;-73
2022/05/25 14:50:22;;;;;;;4.47;2.30;;;;;;;;;;5057333;28;20028;-74
2022/05/25 14:52:58;;;;;;;2.55;2.25;;;;;;;;;;5092004;28;20040;-74
2022/05/25 14:55:28;;;;;;;3.80;2.35;;;;;;;;;;5094661;28;20691;-74
2022/05/25 14:58:04;;;;;;;1.83;1.73;;;;;;;;;;5076282;28;20057;-74
2022/05/25 15:00:30;;;;;;;2.30;2.10;;;;;;;;;;5075016;28;20024;-73
2022/05/25 15:02:57;;;;;;;2.47;1.88;;;;;;;;;;5090411;28;20042;-73
2022/05/25 15:05:24;;;;;;;3.85;2.15;;;;;;;;;;5091813;28;20039;-71
2022/05/25 15:07:54;;;;;;;2.38;2.20;;;;;;;;;;5091847;28;20130;-73
2022/05/25 15:10:19;;;;;;;3.25;2.03;;;;;;;;;;5091659;28;20040;-74
2022/05/25 15:12:45;;;;;;;2.20;2.00;;;;;;;;;;5091728;28;20549;-74
2022/05/25 15:18:29;;;;;;;1.98;1.88;;;;;;;;;;5091419;28;20085;-74
2022/05/25 15:20:55;;;;;;;6.35;1.90;;;;;;;;;;5092136;28;20040;-76
2022/05/25 15:23:23;;;;;;;3.78;1.83;;;;;;;;;;5073367;28;20035;-77
2022/05/25 15:25:49;;;;;;;2.92;1.63;;;;;;;;;;5073322;28;20535;-77